Terminal Aerodrome Forecast
Issued by NWS Sterling, VA

Current Version | Previous Version | Text Only | Print | Product List | Glossary Off
Versions: 1 2 3 4 5 6 7 8 9 10 11 12 13 14 15 16 17 18 19 20 21 22 23 24 25

552
FTUS41 KLWX 222322
TAFDCA
TAF
KDCA 222322Z 2300/2406 VRB03KT P6SM BKN100
     FM230900 VRB03KT P6SM SCT060
     FM231200 28006KT P6SM BKN035
     FM231600 33010G16KT P6SM SCT040
     FM240000 VRB03KT P6SM FEW250=

USA.gov is the U.S. government's official web portal to all federal, state and local government web resources and services.